Аэропорт: Основа. Харьков

ICAO: UKHH

METAR:
2021-01-24 18:30:00
UKHH 241830Z 13006MPS CAVOK 03/M01 Q1013 R07/190079 NOSIG
METAR:
2021-01-24 17:07:00
TAF UKHH 241707Z 2418/2518 13006MPS 6000 OVC011 TX06/2512Z TN01/2505Z TEMPO 2418/2422 14006G12MPS 2100 -SHRA SCT004 BKN007 BKN015CB BECMG 2422/2424 2100 -SHRA BR BKN005 BKN015CB BECMG 2509/2510 6000 NSW BKN011 BECMG 2515/2517 14006MPS 2100 -SHSRA BR BKN004 SCT015CB